createdAt,value
2017-12-25T00:02:16.018Z,3.00
2017-12-25T00:04:45.074Z,4.50
2017-12-25T00:07:13.376Z,3.43
2017-12-25T00:09:41.635Z,3.83
2017-12-25T00:12:09.987Z,2.90
2017-12-25T00:14:38.241Z,3.10
2017-12-25T00:17:07.091Z,6.17
2017-12-25T00:19:35.707Z,4.10
2017-12-25T00:22:04.003Z,3.20
2017-12-25T00:24:32.539Z,2.77
2017-12-25T00:27:00.814Z,4.03
2017-12-25T00:29:29.091Z,3.20
2017-12-25T00:31:58.319Z,2.70
2017-12-25T00:34:26.608Z,3.60
2017-12-25T00:36:55.171Z,2.60
2017-12-25T00:39:23.891Z,2.30
2017-12-25T00:41:52.179Z,2.50
2017-12-25T00:44:20.634Z,6.27
2017-12-25T00:46:48.930Z,2.40
2017-12-25T00:49:17.395Z,2.73
2017-12-25T00:51:45.715Z,2.50
2017-12-25T00:54:14.161Z,2.50
2017-12-25T00:56:42.445Z,3.00
2017-12-25T00:59:10.911Z,4.70
2017-12-25T01:01:39.195Z,3.00
2017-12-25T01:04:08.438Z,4.00
2017-12-25T01:06:37.078Z,3.23
2017-12-25T01:09:06.158Z,2.80
2017-12-25T01:11:34.650Z,3.33
2017-12-25T01:14:03.935Z,2.33
2017-12-25T01:16:32.657Z,7.63
2017-12-25T01:19:01.914Z,4.60
2017-12-25T01:21:30.323Z,3.80
2017-12-25T01:23:58.596Z,2.90
2017-12-25T01:26:27.130Z,2.70
2017-12-25T01:28:55.419Z,3.30
2017-12-25T01:31:24.472Z,2.80
2017-12-25T01:33:52.770Z,4.20
2017-12-25T01:36:21.511Z,2.70
2017-12-25T01:38:51.336Z,4.67
2017-12-25T01:41:20.287Z,3.57
2017-12-25T01:43:49.010Z,9.90
2017-12-25T01:46:17.691Z,2.40
2017-12-25T01:48:46.258Z,3.40
2017-12-25T01:51:14.929Z,2.77
2017-12-25T01:53:44.067Z,2.30
2017-12-25T01:56:12.603Z,2.60
2017-12-25T01:58:41.906Z,4.50
2017-12-25T02:01:12.063Z,2.27
2017-12-25T02:03:41.746Z,3.57
2017-12-25T02:06:18.964Z,2.60
2017-12-25T02:08:47.258Z,2.60
2017-12-25T02:11:15.555Z,2.60
2017-12-25T02:13:43.963Z,2.40
2017-12-25T02:16:13.075Z,2.60
2017-12-25T02:18:42.385Z,2.17
2017-12-25T02:21:11.415Z,2.80
2017-12-25T02:23:39.934Z,2.43
2017-12-25T02:26:09.184Z,3.10
2017-12-25T02:28:38.095Z,2.47
2017-12-25T02:31:07.964Z,3.50
2017-12-25T02:33:36.327Z,2.03
2017-12-25T02:36:04.912Z,2.00
2017-12-25T02:38:33.195Z,2.30
2017-12-25T02:41:01.482Z,2.40
2017-12-25T02:43:30.418Z,2.37
2017-12-25T02:45:58.871Z,3.10
2017-12-25T02:48:27.144Z,2.57
2017-12-25T02:50:55.467Z,2.00
2017-12-25T02:53:23.991Z,2.30
2017-12-25T02:55:52.281Z,2.43
2017-12-25T02:58:20.598Z,4.97
2017-12-25T03:00:48.909Z,2.00
2017-12-25T03:03:17.203Z,2.97
2017-12-25T03:05:45.582Z,2.60
2017-12-25T03:08:13.951Z,2.20
2017-12-25T03:10:42.243Z,2.17
2017-12-25T03:13:10.542Z,2.50
2017-12-25T03:15:38.831Z,2.13
2017-12-25T03:18:08.779Z,2.03
2017-12-25T03:20:40.508Z,4.30
2017-12-25T03:23:08.804Z,1.87
2017-12-25T03:25:37.086Z,2.33
2017-12-25T03:28:05.346Z,2.10
2017-12-25T03:30:34.349Z,4.00
2017-12-25T03:33:02.719Z,3.00
2017-12-25T03:35:31.299Z,3.47
2017-12-25T03:37:59.903Z,2.27
2017-12-25T03:40:28.817Z,2.13
2017-12-25T03:42:57.733Z,2.30
2017-12-25T03:45:26.613Z,2.00
2017-12-25T03:47:56.396Z,1.90
2017-12-25T03:50:25.452Z,2.43
2017-12-25T03:52:57.985Z,2.10
2017-12-25T03:55:26.775Z,1.73
2017-12-25T03:57:56.357Z,4.30
2017-12-25T04:00:25.311Z,2.83
2017-12-25T04:02:53.619Z,2.20
2017-12-25T04:05:21.992Z,3.23
2017-12-25T04:07:50.287Z,1.90
2017-12-25T04:10:18.671Z,2.20
2017-12-25T04:12:46.973Z,1.90
2017-12-25T04:15:15.304Z,1.90
2017-12-25T04:17:43.696Z,1.80
2017-12-25T04:20:12.034Z,2.03
2017-12-25T04:22:40.443Z,1.60
2017-12-25T04:25:09.044Z,2.30
2017-12-25T04:27:37.334Z,1.93
2017-12-25T04:30:05.674Z,2.07
2017-12-25T04:32:36.027Z,2.00
2017-12-25T04:35:04.605Z,1.70
2017-12-25T04:37:33.047Z,1.67
2017-12-25T04:40:01.339Z,2.40
2017-12-25T04:42:29.715Z,1.83
2017-12-25T04:44:58.244Z,2.10
2017-12-25T04:47:26.927Z,2.20
2017-12-25T04:49:55.243Z,1.97
2017-12-25T04:52:23.527Z,2.20
2017-12-25T04:54:51.792Z,1.73
2017-12-25T04:57:20.131Z,2.03
2017-12-25T04:59:48.488Z,1.87
2017-12-25T05:02:16.792Z,1.80
2017-12-25T05:04:45.134Z,1.90
2017-12-25T05:07:13.719Z,1.80
2017-12-25T05:09:43.298Z,2.23
2017-12-25T05:12:12.574Z,2.17
2017-12-25T05:14:41.211Z,2.93
2017-12-25T05:17:09.623Z,2.23
2017-12-25T05:19:38.035Z,2.70
2017-12-25T05:22:06.571Z,1.57
2017-12-25T05:24:34.883Z,1.63
2017-12-25T05:27:03.248Z,2.00
2017-12-25T05:29:31.571Z,1.90
2017-12-25T05:31:59.880Z,2.03
2017-12-25T05:34:28.186Z,1.80
2017-12-25T05:36:56.479Z,3.50
2017-12-25T05:39:24.776Z,2.10
2017-12-25T05:41:53.232Z,2.20
2017-12-25T05:44:21.898Z,2.57
2017-12-25T05:46:51.474Z,4.47
2017-12-25T05:49:19.998Z,1.90
2017-12-25T05:51:48.324Z,3.03
2017-12-25T05:54:16.606Z,2.10
2017-12-25T05:56:45.005Z,4.03
2017-12-25T05:59:13.334Z,2.00
2017-12-25T06:01:41.801Z,1.90
2017-12-25T06:04:10.070Z,2.00
2017-12-25T06:06:38.391Z,2.23
2017-12-25T06:09:06.859Z,2.27
2017-12-25T06:11:35.143Z,2.13
2017-12-25T06:14:03.836Z,2.10
2017-12-25T06:16:32.794Z,2.00
2017-12-25T06:19:02.300Z,1.63
2017-12-25T06:21:30.683Z,2.03
2017-12-25T06:23:59.294Z,6.73
2017-12-25T06:26:27.683Z,1.90
2017-12-25T06:28:55.986Z,2.03
2017-12-25T06:31:24.735Z,2.00
2017-12-25T06:33:53.051Z,1.83
2017-12-25T06:36:21.388Z,1.73
2017-12-25T06:38:49.895Z,1.90
2017-12-25T06:41:18.257Z,2.17
2017-12-25T06:43:46.728Z,2.07
2017-12-25T06:46:15.025Z,1.90
2017-12-25T06:48:43.473Z,2.50
2017-12-25T06:51:11.758Z,4.20
2017-12-25T06:53:40.028Z,2.27
2017-12-25T06:56:08.315Z,3.40
2017-12-25T06:58:36.911Z,2.10
2017-12-25T07:01:06.487Z,3.00
2017-12-25T07:03:35.957Z,2.20
2017-12-25T07:06:05.090Z,6.10
2017-12-25T07:08:33.632Z,2.33
2017-12-25T07:11:01.939Z,2.10
2017-12-25T07:13:30.228Z,4.23
2017-12-25T07:15:58.601Z,3.60
2017-12-25T07:18:27.077Z,6.83
2017-12-25T07:20:55.492Z,2.73
2017-12-25T07:23:24.685Z,5.73
2017-12-25T07:25:52.990Z,5.47
2017-12-25T07:28:21.279Z,1.60
2017-12-25T07:30:49.604Z,3.43
2017-12-25T07:33:17.903Z,2.90
2017-12-25T07:35:46.228Z,3.00
2017-12-25T07:38:14.521Z,8.20
2017-12-25T07:40:42.840Z,6.83
2017-12-25T07:43:12.021Z,3.60
2017-12-25T07:45:40.389Z,12.63
2017-12-25T07:48:08.701Z,20.67
2017-12-25T07:50:37.279Z,43.40
2017-12-25T07:53:05.584Z,61.87
2017-12-25T07:55:34.020Z,68.13
2017-12-25T07:58:02.638Z,67.27
2017-12-25T08:00:31.110Z,71.57
2017-12-25T08:02:59.463Z,71.60
2017-12-25T08:05:27.755Z,68.80
2017-12-25T08:07:56.086Z,65.73
2017-12-25T08:10:24.491Z,68.97
2017-12-25T08:12:52.840Z,70.10
2017-12-25T08:15:21.642Z,64.90
2017-12-25T08:17:49.952Z,146.40
2017-12-25T08:20:18.394Z,132.90
2017-12-25T08:22:46.684Z,102.87
2017-12-25T08:25:15.201Z,106.47
2017-12-25T08:27:43.491Z,98.37
2017-12-25T08:30:11.811Z,94.03
2017-12-25T08:32:40.132Z,86.47
2017-12-25T08:35:08.476Z,92.03
2017-12-25T08:37:37.256Z,77.67
2017-12-25T08:40:05.591Z,78.60
2017-12-25T08:42:33.919Z,67.97
2017-12-25T08:45:02.321Z,65.60
2017-12-25T08:47:30.647Z,62.30
2017-12-25T08:49:58.915Z,42.27
2017-12-25T08:52:27.324Z,45.17
2017-12-25T08:54:55.599Z,41.10
2017-12-25T08:57:23.938Z,42.87
2017-12-25T08:59:52.244Z,32.07
2017-12-25T09:02:20.586Z,40.00
2017-12-25T09:04:48.877Z,35.37
2017-12-25T09:07:17.195Z,33.83
2017-12-25T09:09:45.509Z,28.10
2017-12-25T09:12:13.900Z,28.23
2017-12-25T09:14:42.283Z,39.67
2017-12-25T09:17:10.648Z,29.43
2017-12-25T09:19:38.939Z,27.97
2017-12-25T09:22:07.268Z,22.73
2017-12-25T09:24:35.603Z,19.67
2017-12-25T09:27:03.937Z,20.57
2017-12-25T09:29:32.267Z,19.37
2017-12-25T09:32:00.806Z,20.00
2017-12-25T09:34:29.144Z,22.33
2017-12-25T09:36:57.494Z,17.77
2017-12-25T09:39:25.778Z,19.60
2017-12-25T09:41:54.282Z,11.50
2017-12-25T09:44:23.008Z,17.30
2017-12-25T09:46:51.335Z,24.73
2017-12-25T09:49:19.666Z,11.23
2017-12-25T09:51:48.107Z,9.53
2017-12-25T09:54:16.432Z,15.33
2017-12-25T09:56:44.803Z,10.37
2017-12-25T09:59:13.103Z,11.47
2017-12-25T10:01:41.483Z,12.33
2017-12-25T10:04:09.786Z,14.47
2017-12-25T10:06:38.166Z,16.10
2017-12-25T10:09:06.638Z,18.37
2017-12-25T10:11:35.151Z,13.30
2017-12-25T10:14:03.443Z,12.37
2017-12-25T10:16:31.771Z,9.87
2017-12-25T10:19:00.147Z,12.50
2017-12-25T10:21:28.473Z,18.63
2017-12-25T10:23:56.764Z,12.53
2017-12-25T10:26:25.213Z,11.70
2017-12-25T10:28:53.591Z,6.43
2017-12-25T10:31:21.990Z,8.60
2017-12-25T10:33:50.284Z,11.63
2017-12-25T10:36:18.671Z,9.33
2017-12-25T10:38:47.075Z,26.10
2017-12-25T10:41:15.372Z,12.13
2017-12-25T10:43:43.663Z,9.03
2017-12-25T10:46:12.035Z,13.10
2017-12-25T10:48:40.459Z,12.60
2017-12-25T10:51:08.734Z,8.77
2017-12-25T10:53:37.015Z,19.57
2017-12-25T10:56:05.316Z,15.37
2017-12-25T10:58:33.803Z,11.70
2017-12-25T11:01:02.117Z,10.90
2017-12-25T11:03:30.467Z,15.23
2017-12-25T11:05:58.784Z,25.63
2017-12-25T11:08:27.067Z,36.83
2017-12-25T11:10:55.390Z,36.17
2017-12-25T11:13:23.711Z,39.63
2017-12-25T11:15:52.659Z,47.43
2017-12-25T11:18:20.978Z,60.17
2017-12-25T11:20:49.259Z,60.77
2017-12-25T11:23:17.579Z,80.50
2017-12-25T11:25:46.083Z,75.33
2017-12-25T11:28:15.047Z,76.23
2017-12-25T11:30:43.367Z,83.83
2017-12-25T11:33:11.799Z,88.57
2017-12-25T11:35:40.090Z,78.70
2017-12-25T11:38:08.439Z,83.63
2017-12-25T11:40:36.747Z,68.03
2017-12-25T11:43:05.015Z,77.10
2017-12-25T11:45:33.512Z,68.73
2017-12-25T11:48:01.791Z,63.57
2017-12-25T11:50:30.343Z,67.13
2017-12-25T11:52:58.745Z,72.93
2017-12-25T11:55:27.238Z,63.93
2017-12-25T11:57:55.543Z,71.00
2017-12-25T12:00:23.884Z,61.13
2017-12-25T12:02:52.215Z,65.17
2017-12-25T12:05:20.799Z,48.60
2017-12-25T12:07:49.111Z,58.93
2017-12-25T12:10:17.419Z,57.47
2017-12-25T12:12:45.766Z,57.50
2017-12-25T12:15:14.076Z,46.87
2017-12-25T12:17:42.391Z,50.77
2017-12-25T12:20:10.702Z,49.43
2017-12-25T12:22:39.067Z,44.87
2017-12-25T12:25:07.468Z,48.10
2017-12-25T12:27:35.732Z,48.47
2017-12-25T12:30:04.126Z,43.00
2017-12-25T12:32:32.575Z,49.53
2017-12-25T12:35:00.924Z,37.20
2017-12-25T12:37:29.362Z,36.50
2017-12-25T12:39:57.639Z,30.97
2017-12-25T12:42:26.115Z,34.43
2017-12-25T12:44:54.379Z,27.43
2017-12-25T12:47:22.675Z,24.83
2017-12-25T12:49:51.139Z,32.47
2017-12-25T12:52:19.435Z,19.60
2017-12-25T12:54:48.013Z,25.73
2017-12-25T12:57:16.596Z,25.83
2017-12-25T12:59:44.859Z,23.00
2017-12-25T13:02:13.180Z,23.73
2017-12-25T13:04:41.643Z,23.60
2017-12-25T13:07:09.986Z,25.43
2017-12-25T13:09:38.380Z,20.43
2017-12-25T13:12:06.875Z,22.70
2017-12-25T13:14:35.224Z,26.10
2017-12-25T13:17:03.534Z,21.97
2017-12-25T13:19:32.052Z,16.87
2017-12-25T13:22:00.390Z,22.33
2017-12-25T13:24:28.688Z,17.80
2017-12-25T13:26:57.136Z,19.17
2017-12-25T13:29:25.403Z,17.17
2017-12-25T13:31:53.807Z,17.70
2017-12-25T13:34:22.155Z,16.20
2017-12-25T13:36:50.698Z,20.53
2017-12-25T13:39:18.983Z,18.87
2017-12-25T13:41:47.275Z,14.53
2017-12-25T13:44:15.540Z,14.03
2017-12-25T13:46:43.835Z,14.17
2017-12-25T13:49:12.110Z,12.83
2017-12-25T13:51:40.459Z,14.10
2017-12-25T13:54:08.746Z,18.63
2017-12-25T13:56:37.235Z,11.10
2017-12-25T13:59:05.505Z,7.80
2017-12-25T14:01:33.807Z,14.27
2017-12-25T14:04:02.096Z,9.03
2017-12-25T14:06:30.563Z,9.87
2017-12-25T14:08:59.098Z,10.00
2017-12-25T14:11:27.378Z,8.20
2017-12-25T14:13:55.795Z,10.07
2017-12-25T14:16:24.100Z,11.40
2017-12-25T14:18:52.555Z,9.67
2017-12-25T14:21:20.826Z,7.87
2017-12-25T14:23:49.123Z,8.37
2017-12-25T14:26:17.603Z,8.17
2017-12-25T14:28:46.075Z,7.53
2017-12-25T14:31:14.669Z,6.43
2017-12-25T14:33:42.919Z,11.10
2017-12-25T14:36:11.322Z,8.63
2017-12-25T14:38:39.777Z,5.90
2017-12-25T14:41:08.055Z,6.83
2017-12-25T14:43:36.515Z,5.93
2017-12-25T14:46:04.822Z,6.60
2017-12-25T14:48:33.274Z,9.70
2017-12-25T14:51:01.812Z,8.20
2017-12-25T14:53:30.259Z,4.33
2017-12-25T14:55:58.555Z,5.37
2017-12-25T14:58:27.007Z,7.33
2017-12-25T15:00:55.282Z,48.47
2017-12-25T15:03:23.589Z,7.30
2017-12-25T15:05:51.895Z,10.73
2017-12-25T15:08:20.183Z,3.57
2017-12-25T15:10:48.611Z,6.40
2017-12-25T15:13:16.902Z,6.20
2017-12-25T15:15:45.379Z,8.43
2017-12-25T15:18:13.779Z,2.97
2017-12-25T15:20:42.067Z,2.03
2017-12-25T15:23:10.368Z,4.63
2017-12-25T15:25:38.823Z,4.57
2017-12-25T15:28:07.086Z,3.90
2017-12-25T15:30:35.372Z,3.20
2017-12-25T15:33:03.626Z,7.20
2017-12-25T15:35:31.967Z,3.70
2017-12-25T15:38:00.444Z,4.83
2017-12-25T15:40:28.792Z,3.00
2017-12-25T15:42:57.894Z,5.33
2017-12-25T15:45:26.327Z,3.13
2017-12-25T15:47:54.791Z,3.60
2017-12-25T15:50:23.103Z,2.60
2017-12-25T15:52:51.552Z,7.60
2017-12-25T15:55:19.976Z,6.83
2017-12-25T15:57:48.283Z,4.27
2017-12-25T16:00:16.583Z,5.07
2017-12-25T16:02:44.840Z,2.50
2017-12-25T16:05:13.214Z,2.60
2017-12-25T16:07:41.591Z,3.30
2017-12-25T16:10:10.041Z,2.27
2017-12-25T16:12:38.375Z,3.33
2017-12-25T16:15:06.862Z,2.27
2017-12-25T16:17:35.307Z,3.90
2017-12-25T16:20:03.635Z,6.00
2017-12-25T16:22:31.979Z,1.50
2017-12-25T16:25:00.271Z,2.33
2017-12-25T16:27:28.814Z,5.13
2017-12-25T16:29:57.131Z,2.97
2017-12-25T16:32:25.496Z,4.40
2017-12-25T16:34:53.775Z,3.73
2017-12-25T16:37:22.063Z,2.90
2017-12-25T16:39:50.314Z,2.93
2017-12-25T16:42:18.629Z,3.50
2017-12-25T16:44:46.971Z,2.00
2017-12-25T16:47:15.246Z,3.20
2017-12-25T16:49:43.498Z,6.63
2017-12-25T16:52:11.816Z,1.70
2017-12-25T16:54:40.355Z,3.00
2017-12-25T16:57:08.677Z,3.30
2017-12-25T16:59:36.983Z,4.53
2017-12-25T17:02:05.272Z,1.93
2017-12-25T17:04:33.600Z,3.33
2017-12-25T17:07:02.097Z,2.20
2017-12-25T17:09:30.389Z,1.43
2017-12-25T17:11:58.719Z,1.33
2017-12-25T17:14:27.031Z,1.33
2017-12-25T17:16:55.343Z,1.57
2017-12-25T17:19:23.595Z,3.73
2017-12-25T17:21:51.896Z,4.07
2017-12-25T17:24:20.195Z,3.50
2017-12-25T17:26:48.535Z,1.50
2017-12-25T17:29:16.843Z,2.80
2017-12-25T17:31:45.147Z,5.77
2017-12-25T17:34:13.769Z,4.23
2017-12-25T17:36:42.235Z,3.10
2017-12-25T17:39:10.691Z,4.60
2017-12-25T17:41:38.983Z,5.00
2017-12-25T17:44:07.455Z,2.60
2017-12-25T17:46:35.731Z,2.20
2017-12-25T17:49:04.015Z,4.20
2017-12-25T17:51:32.503Z,4.50
2017-12-25T17:54:00.958Z,3.50
2017-12-25T17:56:29.260Z,3.93
2017-12-25T17:58:57.719Z,3.97
2017-12-25T18:01:26.157Z,3.97
2017-12-25T18:03:54.416Z,2.70
2017-12-25T18:06:22.726Z,3.93
2017-12-25T18:08:50.992Z,4.43
2017-12-25T18:11:19.279Z,3.57
2017-12-25T18:13:47.779Z,8.90
2017-12-25T18:16:16.275Z,2.60
2017-12-25T18:18:44.575Z,5.00
2017-12-25T18:21:12.907Z,3.30
2017-12-25T18:23:41.179Z,3.87
2017-12-25T18:26:09.474Z,3.40
2017-12-25T18:28:37.780Z,7.30
2017-12-25T18:31:06.244Z,4.20
2017-12-25T18:33:34.519Z,4.50
2017-12-25T18:36:02.844Z,3.43
2017-12-25T18:38:31.127Z,8.67
2017-12-25T18:40:59.431Z,3.97
2017-12-25T18:43:27.711Z,2.70
2017-12-25T18:45:56.023Z,3.60
2017-12-25T18:48:24.342Z,5.80
2017-12-25T18:50:52.679Z,6.93
2017-12-25T18:53:20.947Z,6.67
2017-12-25T18:55:49.320Z,8.30
2017-12-25T18:58:17.642Z,5.23
2017-12-25T19:00:45.939Z,3.47
2017-12-25T19:03:14.323Z,3.77
2017-12-25T19:05:42.626Z,4.00
2017-12-25T19:08:11.066Z,2.97
2017-12-25T19:10:39.709Z,6.53
2017-12-25T19:13:08.051Z,7.60
2017-12-25T19:15:36.347Z,5.43
2017-12-25T19:18:04.623Z,4.83
2017-12-25T19:20:32.902Z,3.00
2017-12-25T19:23:01.360Z,3.00
2017-12-25T19:25:29.697Z,5.90
2017-12-25T19:27:58.007Z,11.60
2017-12-25T19:30:26.343Z,4.40
2017-12-25T19:32:54.666Z,7.83
2017-12-25T19:35:22.950Z,3.37
2017-12-25T19:37:51.215Z,6.03
2017-12-25T19:40:19.502Z,4.10
2017-12-25T19:42:47.835Z,2.03
2017-12-25T19:45:16.250Z,1.80
2017-12-25T19:47:44.654Z,2.43
2017-12-25T19:50:12.955Z,4.50
2017-12-25T19:52:41.284Z,3.30
2017-12-25T19:55:09.631Z,8.50
2017-12-25T19:57:37.926Z,7.87
2017-12-25T20:00:06.512Z,4.33
2017-12-25T20:02:34.798Z,2.40
2017-12-25T20:05:03.078Z,2.93
2017-12-25T20:07:31.419Z,5.47
2017-12-25T20:09:59.695Z,1.97
2017-12-25T20:12:28.046Z,1.80
2017-12-25T20:14:56.522Z,1.70
2017-12-25T20:17:24.835Z,3.97
2017-12-25T20:19:53.144Z,4.07
2017-12-25T20:22:21.960Z,1.23
2017-12-25T20:24:50.310Z,2.80
2017-12-25T20:27:18.631Z,3.50
2017-12-25T20:29:46.900Z,1.40
2017-12-25T20:32:15.375Z,1.97
2017-12-25T20:34:43.684Z,3.67
2017-12-25T20:37:12.708Z,1.63
2017-12-25T20:39:41.179Z,1.50
2017-12-25T20:42:09.515Z,1.40
2017-12-25T20:44:37.835Z,2.40
2017-12-25T20:47:06.196Z,1.77
2017-12-25T20:49:34.740Z,4.03
2017-12-25T20:52:03.212Z,5.60
2017-12-25T20:54:31.507Z,1.53
2017-12-25T20:56:59.811Z,1.40
2017-12-25T20:59:28.132Z,4.00
2017-12-25T21:01:56.431Z,6.17
2017-12-25T21:04:24.730Z,2.20
2017-12-25T21:06:53.415Z,3.80
2017-12-25T21:09:22.024Z,5.10
2017-12-25T21:11:50.320Z,4.73
2017-12-25T21:14:18.582Z,2.47
2017-12-25T21:16:47.040Z,3.17
2017-12-25T21:19:15.319Z,1.33
2017-12-25T21:21:44.390Z,3.57
2017-12-25T21:24:12.723Z,1.30
2017-12-25T21:26:41.131Z,3.13
2017-12-25T21:29:09.550Z,1.40
2017-12-25T21:31:37.830Z,2.70
2017-12-25T21:34:06.089Z,4.10
2017-12-25T21:36:34.380Z,6.13
2017-12-25T21:39:02.691Z,3.10
2017-12-25T21:41:31.035Z,2.30
2017-12-25T21:43:59.302Z,2.13
2017-12-25T21:46:27.595Z,2.57
2017-12-25T21:48:56.048Z,1.47
2017-12-25T21:51:24.856Z,2.03
2017-12-25T21:53:53.535Z,1.93
2017-12-25T21:56:21.904Z,3.07
2017-12-25T21:58:50.179Z,2.10
2017-12-25T22:01:18.988Z,4.60
2017-12-25T22:03:47.274Z,2.60
2017-12-25T22:06:15.587Z,2.80
2017-12-25T22:08:43.867Z,2.00
2017-12-25T22:11:12.165Z,1.60
2017-12-25T22:13:40.513Z,4.40
2017-12-25T22:16:08.860Z,2.07
2017-12-25T22:18:37.150Z,2.60
2017-12-25T22:21:05.436Z,4.60
2017-12-25T22:23:33.730Z,4.60
2017-12-25T22:26:02.252Z,1.50
2017-12-25T22:28:30.653Z,3.40
2017-12-25T22:30:58.979Z,2.10
2017-12-25T22:33:27.431Z,2.87
2017-12-25T22:35:55.763Z,2.70
2017-12-25T22:38:24.182Z,2.70
2017-12-25T22:40:52.487Z,1.57
2017-12-25T22:43:20.765Z,2.40
2017-12-25T22:45:49.127Z,2.40
2017-12-25T22:48:17.425Z,2.20
2017-12-25T22:50:45.896Z,1.30
2017-12-25T22:53:14.332Z,1.50
2017-12-25T22:55:42.672Z,2.77
2017-12-25T22:58:11.048Z,2.30
2017-12-25T23:00:40.738Z,2.43
2017-12-25T23:03:09.062Z,1.37
2017-12-25T23:05:37.380Z,2.83
2017-12-25T23:08:05.822Z,4.00
2017-12-25T23:10:34.111Z,1.33
2017-12-25T23:13:02.495Z,1.60
2017-12-25T23:15:30.819Z,3.37
2017-12-25T23:17:59.111Z,1.80
2017-12-25T23:20:27.444Z,1.83
2017-12-25T23:22:55.887Z,1.70
2017-12-25T23:25:24.171Z,1.43
2017-12-25T23:27:52.483Z,1.00
2017-12-25T23:30:20.788Z,1.27
2017-12-25T23:32:49.143Z,2.50
2017-12-25T23:35:17.487Z,1.43
2017-12-25T23:37:45.738Z,1.70
2017-12-25T23:40:14.262Z,1.27
2017-12-25T23:42:42.595Z,1.80
2017-12-25T23:45:11.128Z,1.13
2017-12-25T23:47:39.430Z,2.33
2017-12-25T23:50:07.903Z,5.20
2017-12-25T23:52:36.175Z,3.60
2017-12-25T23:55:04.471Z,1.40
2017-12-25T23:57:32.822Z,2.50
